sensor_id;sensor_type;location;lat;lon;timestamp;temperature;humidity
41481;DHT22;27217;51.220;5.308;2022-08-25T00:01:00;23.80;99.90
41481;DHT22;27217;51.220;5.308;2022-08-25T00:03:26;23.80;99.90
41481;DHT22;27217;51.220;5.308;2022-08-25T00:05:51;23.80;99.90
41481;DHT22;27217;51.220;5.308;2022-08-25T00:08:18;23.80;99.90
41481;DHT22;27217;51.220;5.308;2022-08-25T00:10:44;23.80;99.90
41481;DHT22;27217;51.220;5.308;2022-08-25T00:13:09;23.70;99.90
41481;DHT22;27217;51.220;5.308;2022-08-25T00:15:36;23.80;99.90
41481;DHT22;27217;51.220;5.308;2022-08-25T00:18:03;23.80;99.90
41481;DHT22;27217;51.220;5.308;2022-08-25T00:20:30;23.60;99.90
41481;DHT22;27217;51.220;5.308;2022-08-25T00:22:55;23.60;99.90
41481;DHT22;27217;51.220;5.308;2022-08-25T00:25:22;23.50;99.90
41481;DHT22;27217;51.220;5.308;2022-08-25T00:27:49;23.40;99.90
41481;DHT22;27217;51.220;5.308;2022-08-25T00:30:16;23.40;99.90
41481;DHT22;27217;51.220;5.308;2022-08-25T00:32:44;23.50;99.90
41481;DHT22;27217;51.220;5.308;2022-08-25T00:35:10;23.50;99.90
41481;DHT22;27217;51.220;5.308;2022-08-25T00:37:36;23.30;99.90
41481;DHT22;27217;51.220;5.308;2022-08-25T00:40:03;23.20;99.90
41481;DHT22;27217;51.220;5.308;2022-08-25T00:42:29;23.10;99.90
41481;DHT22;27217;51.220;5.308;2022-08-25T00:44:56;23.10;99.90
41481;DHT22;27217;51.220;5.308;2022-08-25T00:47:41;23.10;99.90
41481;DHT22;27217;51.220;5.308;2022-08-25T00:50:08;23.20;99.90
41481;DHT22;27217;51.220;5.308;2022-08-25T00:52:39;23.10;99.90
41481;DHT22;27217;51.220;5.308;2022-08-25T00:57:45;23.00;99.90
41481;DHT22;27217;51.220;5.308;2022-08-25T01:02:46;23.00;99.90
41481;DHT22;27217;51.220;5.308;2022-08-25T01:05:12;22.90;99.90
41481;DHT22;27217;51.220;5.308;2022-08-25T01:07:39;22.80;99.90
41481;DHT22;27217;51.220;5.308;2022-08-25T01:10:07;22.70;99.90
41481;DHT22;27217;51.220;5.308;2022-08-25T01:12:34;22.80;99.90
41481;DHT22;27217;51.220;5.308;2022-08-25T01:15:03;22.70;99.90
41481;DHT22;27217;51.220;5.308;2022-08-25T01:17:50;22.60;99.90
41481;DHT22;27217;51.220;5.308;2022-08-25T01:20:18;22.50;99.90
41481;DHT22;27217;51.220;5.308;2022-08-25T01:22:45;22.40;99.90
41481;DHT22;27217;51.220;5.308;2022-08-25T01:25:35;22.50;99.90
41481;DHT22;27217;51.220;5.308;2022-08-25T01:28:10;22.40;99.90
41481;DHT22;27217;51.220;5.308;2022-08-25T01:30:37;22.40;99.90
41481;DHT22;27217;51.220;5.308;2022-08-25T01:33:07;22.40;99.90
41481;DHT22;27217;51.220;5.308;2022-08-25T01:35:34;22.40;99.90
41481;DHT22;27217;51.220;5.308;2022-08-25T01:38:01;22.40;99.90
41481;DHT22;27217;51.220;5.308;2022-08-25T01:40:28;22.30;99.90
41481;DHT22;27217;51.220;5.308;2022-08-25T01:43:24;22.30;99.90
41481;DHT22;27217;51.220;5.308;2022-08-25T01:45:54;22.20;99.90
41481;DHT22;27217;51.220;5.308;2022-08-25T01:48:22;22.10;99.90
41481;DHT22;27217;51.220;5.308;2022-08-25T01:50:48;22.10;99.90
41481;DHT22;27217;51.220;5.308;2022-08-25T01:53:27;22.00;99.90
41481;DHT22;27217;51.220;5.308;2022-08-25T01:55:53;22.10;99.90
41481;DHT22;27217;51.220;5.308;2022-08-25T01:58:35;21.90;99.90
41481;DHT22;27217;51.220;5.308;2022-08-25T02:01:05;21.90;99.90
41481;DHT22;27217;51.220;5.308;2022-08-25T02:03:31;21.80;99.90
41481;DHT22;27217;51.220;5.308;2022-08-25T02:05:59;21.70;99.90
41481;DHT22;27217;51.220;5.308;2022-08-25T02:08:25;21.60;99.90
41481;DHT22;27217;51.220;5.308;2022-08-25T02:10:52;21.70;99.90
41481;DHT22;27217;51.220;5.308;2022-08-25T02:13:20;21.70;99.90
41481;DHT22;27217;51.220;5.308;2022-08-25T02:15:49;21.70;99.90
41481;DHT22;27217;51.220;5.308;2022-08-25T02:18:17;21.70;99.90
41481;DHT22;27217;51.220;5.308;2022-08-25T02:20:44;21.70;99.90
41481;DHT22;27217;51.220;5.308;2022-08-25T02:23:10;21.70;99.90
41481;DHT22;27217;51.220;5.308;2022-08-25T02:25:38;21.70;99.90
41481;DHT22;27217;51.220;5.308;2022-08-25T02:28:06;21.80;99.90
41481;DHT22;27217;51.220;5.308;2022-08-25T02:30:33;21.70;99.90
41481;DHT22;27217;51.220;5.308;2022-08-25T02:32:59;21.80;99.90
41481;DHT22;27217;51.220;5.308;2022-08-25T02:35:25;21.80;99.90
41481;DHT22;27217;51.220;5.308;2022-08-25T02:37:52;21.80;99.90
41481;DHT22;27217;51.220;5.308;2022-08-25T02:40:21;21.90;99.90
41481;DHT22;27217;51.220;5.308;2022-08-25T02:42:48;22.00;99.90
41481;DHT22;27217;51.220;5.308;2022-08-25T02:45:14;22.00;99.90
41481;DHT22;27217;51.220;5.308;2022-08-25T02:47:40;22.00;99.90
41481;DHT22;27217;51.220;5.308;2022-08-25T02:50:07;21.90;99.90
41481;DHT22;27217;51.220;5.308;2022-08-25T02:52:33;21.80;99.90
41481;DHT22;27217;51.220;5.308;2022-08-25T02:55:04;21.80;99.90
41481;DHT22;27217;51.220;5.308;2022-08-25T02:57:31;21.70;99.90
41481;DHT22;27217;51.220;5.308;2022-08-25T02:59:57;21.80;99.90
41481;DHT22;27217;51.220;5.308;2022-08-25T03:02:24;21.80;99.90
41481;DHT22;27217;51.220;5.308;2022-08-25T03:04:51;21.80;99.90
41481;DHT22;27217;51.220;5.308;2022-08-25T03:07:18;21.80;99.90
41481;DHT22;27217;51.220;5.308;2022-08-25T03:09:44;21.80;99.90
41481;DHT22;27217;51.220;5.308;2022-08-25T03:12:10;21.80;99.90
41481;DHT22;27217;51.220;5.308;2022-08-25T03:14:38;21.80;99.90
41481;DHT22;27217;51.220;5.308;2022-08-25T03:17:05;21.70;99.90
41481;DHT22;27217;51.220;5.308;2022-08-25T03:19:31;21.70;99.90
41481;DHT22;27217;51.220;5.308;2022-08-25T03:21:57;21.60;99.90
41481;DHT22;27217;51.220;5.308;2022-08-25T03:24:24;21.60;99.90
41481;DHT22;27217;51.220;5.308;2022-08-25T03:26:52;21.60;99.90
41481;DHT22;27217;51.220;5.308;2022-08-25T03:29:26;21.60;99.90
41481;DHT22;27217;51.220;5.308;2022-08-25T03:31:53;21.80;99.90
41481;DHT22;27217;51.220;5.308;2022-08-25T03:34:21;21.80;99.90
41481;DHT22;27217;51.220;5.308;2022-08-25T03:36:50;21.80;99.90
41481;DHT22;27217;51.220;5.308;2022-08-25T03:39:17;21.80;99.90
41481;DHT22;27217;51.220;5.308;2022-08-25T03:41:43;21.90;99.90
41481;DHT22;27217;51.220;5.308;2022-08-25T03:44:09;21.80;99.90
41481;DHT22;27217;51.220;5.308;2022-08-25T03:46:42;21.70;99.90
41481;DHT22;27217;51.220;5.308;2022-08-25T03:49:11;21.40;99.90
41481;DHT22;27217;51.220;5.308;2022-08-25T03:51:40;21.30;99.90
41481;DHT22;27217;51.220;5.308;2022-08-25T03:54:08;21.40;99.90
41481;DHT22;27217;51.220;5.308;2022-08-25T03:56:34;21.50;99.90
41481;DHT22;27217;51.220;5.308;2022-08-25T03:59:00;21.60;99.90
41481;DHT22;27217;51.220;5.308;2022-08-25T04:01:27;21.60;99.90
41481;DHT22;27217;51.220;5.308;2022-08-25T04:03:52;21.80;99.90
41481;DHT22;27217;51.220;5.308;2022-08-25T04:06:19;21.70;99.90
41481;DHT22;27217;51.220;5.308;2022-08-25T04:08:45;21.70;99.90
41481;DHT22;27217;51.220;5.308;2022-08-25T04:11:16;21.70;99.90
41481;DHT22;27217;51.220;5.308;2022-08-25T04:13:43;21.80;99.90
41481;DHT22;27217;51.220;5.308;2022-08-25T04:16:21;21.60;99.90
41481;DHT22;27217;51.220;5.308;2022-08-25T04:18:48;21.60;99.90
41481;DHT22;27217;51.220;5.308;2022-08-25T04:21:15;21.50;99.90
41481;DHT22;27217;51.220;5.308;2022-08-25T04:23:43;21.50;99.90
41481;DHT22;27217;51.220;5.308;2022-08-25T04:26:17;21.50;99.90
41481;DHT22;27217;51.220;5.308;2022-08-25T04:28:44;21.30;99.90
41481;DHT22;27217;51.220;5.308;2022-08-25T04:31:12;21.30;99.90
41481;DHT22;27217;51.220;5.308;2022-08-25T04:33:39;21.30;99.90
41481;DHT22;27217;51.220;5.308;2022-08-25T04:36:07;21.10;99.90
41481;DHT22;27217;51.220;5.308;2022-08-25T04:38:33;20.90;99.90
41481;DHT22;27217;51.220;5.308;2022-08-25T04:41:02;21.10;99.90
41481;DHT22;27217;51.220;5.308;2022-08-25T04:43:33;21.00;99.90
41481;DHT22;27217;51.220;5.308;2022-08-25T04:46:37;20.80;99.90
41481;DHT22;27217;51.220;5.308;2022-08-25T04:48:57;20.90;99.90
41481;DHT22;27217;51.220;5.308;2022-08-25T04:51:28;20.90;99.90
41481;DHT22;27217;51.220;5.308;2022-08-25T04:53:57;20.90;99.90
41481;DHT22;27217;51.220;5.308;2022-08-25T04:56:23;20.80;99.90
41481;DHT22;27217;51.220;5.308;2022-08-25T04:58:55;20.80;99.90
41481;DHT22;27217;51.220;5.308;2022-08-25T05:01:23;20.90;99.90
41481;DHT22;27217;51.220;5.308;2022-08-25T05:03:58;20.90;99.90
41481;DHT22;27217;51.220;5.308;2022-08-25T05:06:25;21.00;99.90
41481;DHT22;27217;51.220;5.308;2022-08-25T05:08:51;21.00;99.90
41481;DHT22;27217;51.220;5.308;2022-08-25T05:11:18;20.90;99.90
41481;DHT22;27217;51.220;5.308;2022-08-25T05:13:47;20.90;99.90
41481;DHT22;27217;51.220;5.308;2022-08-25T05:16:13;21.00;99.90
41481;DHT22;27217;51.220;5.308;2022-08-25T05:18:39;21.10;99.90
41481;DHT22;27217;51.220;5.308;2022-08-25T05:21:08;21.10;99.90
41481;DHT22;27217;51.220;5.308;2022-08-25T05:23:36;21.10;99.90
41481;DHT22;27217;51.220;5.308;2022-08-25T05:26:07;21.10;99.90
41481;DHT22;27217;51.220;5.308;2022-08-25T05:28:34;21.00;99.90
41481;DHT22;27217;51.220;5.308;2022-08-25T05:31:01;20.90;99.90
41481;DHT22;27217;51.220;5.308;2022-08-25T05:33:28;21.00;99.90
41481;DHT22;27217;51.220;5.308;2022-08-25T05:35:54;20.90;99.90
41481;DHT22;27217;51.220;5.308;2022-08-25T05:38:20;21.00;99.90
41481;DHT22;27217;51.220;5.308;2022-08-25T05:40:46;21.00;99.90
41481;DHT22;27217;51.220;5.308;2022-08-25T05:43:12;21.10;99.90
41481;DHT22;27217;51.220;5.308;2022-08-25T05:45:39;21.30;99.90
41481;DHT22;27217;51.220;5.308;2022-08-25T05:48:05;21.30;99.90
41481;DHT22;27217;51.220;5.308;2022-08-25T05:50:31;21.30;99.90
41481;DHT22;27217;51.220;5.308;2022-08-25T05:52:57;21.30;99.90
41481;DHT22;27217;51.220;5.308;2022-08-25T05:55:23;21.40;99.90
41481;DHT22;27217;51.220;5.308;2022-08-25T05:57:49;21.50;99.90
41481;DHT22;27217;51.220;5.308;2022-08-25T06:00:15;21.70;99.90
41481;DHT22;27217;51.220;5.308;2022-08-25T06:02:42;21.80;99.90
41481;DHT22;27217;51.220;5.308;2022-08-25T06:05:21;21.80;99.90
41481;DHT22;27217;51.220;5.308;2022-08-25T06:07:50;21.80;99.90
41481;DHT22;27217;51.220;5.308;2022-08-25T06:10:17;21.90;99.90
41481;DHT22;27217;51.220;5.308;2022-08-25T06:12:44;22.00;99.90
41481;DHT22;27217;51.220;5.308;2022-08-25T06:15:12;22.10;99.90
41481;DHT22;27217;51.220;5.308;2022-08-25T06:17:38;22.10;99.90
41481;DHT22;27217;51.220;5.308;2022-08-25T06:20:08;22.20;99.90
41481;DHT22;27217;51.220;5.308;2022-08-25T06:22:34;22.30;99.90
41481;DHT22;27217;51.220;5.308;2022-08-25T06:25:03;22.40;99.90
41481;DHT22;27217;51.220;5.308;2022-08-25T06:27:33;22.50;99.90
41481;DHT22;27217;51.220;5.308;2022-08-25T06:29:59;22.60;99.90
41481;DHT22;27217;51.220;5.308;2022-08-25T06:32:33;22.70;99.90
41481;DHT22;27217;51.220;5.308;2022-08-25T06:35:00;22.70;99.90
41481;DHT22;27217;51.220;5.308;2022-08-25T06:37:26;22.90;99.90
41481;DHT22;27217;51.220;5.308;2022-08-25T06:39:52;23.00;99.90
41481;DHT22;27217;51.220;5.308;2022-08-25T06:42:18;23.20;99.90
41481;DHT22;27217;51.220;5.308;2022-08-25T06:44:43;23.40;99.90
41481;DHT22;27217;51.220;5.308;2022-08-25T06:47:12;23.50;99.90
41481;DHT22;27217;51.220;5.308;2022-08-25T06:49:40;23.80;99.90
41481;DHT22;27217;51.220;5.308;2022-08-25T06:52:07;24.00;99.90
41481;DHT22;27217;51.220;5.308;2022-08-25T06:54:33;24.10;99.90
41481;DHT22;27217;51.220;5.308;2022-08-25T06:56:59;24.10;99.90
41481;DHT22;27217;51.220;5.308;2022-08-25T06:59:26;24.20;99.90
41481;DHT22;27217;51.220;5.308;2022-08-25T07:01:52;24.30;99.90
41481;DHT22;27217;51.220;5.308;2022-08-25T07:04:18;24.40;99.90
41481;DHT22;27217;51.220;5.308;2022-08-25T07:06:45;24.60;99.90
41481;DHT22;27217;51.220;5.308;2022-08-25T07:09:12;24.80;99.90
41481;DHT22;27217;51.220;5.308;2022-08-25T07:11:40;24.80;99.90
41481;DHT22;27217;51.220;5.308;2022-08-25T07:14:08;25.00;99.90
41481;DHT22;27217;51.220;5.308;2022-08-25T07:16:35;25.20;99.90
41481;DHT22;27217;51.220;5.308;2022-08-25T07:19:01;25.40;99.90
41481;DHT22;27217;51.220;5.308;2022-08-25T07:21:30;25.50;99.90
41481;DHT22;27217;51.220;5.308;2022-08-25T07:23:56;25.50;99.90
41481;DHT22;27217;51.220;5.308;2022-08-25T07:26:27;25.50;99.90
41481;DHT22;27217;51.220;5.308;2022-08-25T07:29:01;25.80;99.90
41481;DHT22;27217;51.220;5.308;2022-08-25T07:31:27;25.90;99.90
41481;DHT22;27217;51.220;5.308;2022-08-25T07:33:53;26.00;99.90
41481;DHT22;27217;51.220;5.308;2022-08-25T07:36:37;26.10;99.90
41481;DHT22;27217;51.220;5.308;2022-08-25T07:39:03;26.20;99.90
41481;DHT22;27217;51.220;5.308;2022-08-25T07:41:31;26.40;99.90
41481;DHT22;27217;51.220;5.308;2022-08-25T07:43:58;26.60;99.90
41481;DHT22;27217;51.220;5.308;2022-08-25T07:46:24;26.70;99.90
41481;DHT22;27217;51.220;5.308;2022-08-25T07:48:49;26.80;99.90
41481;DHT22;27217;51.220;5.308;2022-08-25T07:51:15;26.90;99.50
41481;DHT22;27217;51.220;5.308;2022-08-25T07:53:41;27.00;99.30
41481;DHT22;27217;51.220;5.308;2022-08-25T07:56:13;27.10;99.20
41481;DHT22;27217;51.220;5.308;2022-08-25T07:58:40;27.30;98.70
41481;DHT22;27217;51.220;5.308;2022-08-25T08:01:07;27.70;98.30
41481;DHT22;27217;51.220;5.308;2022-08-25T08:03:37;27.60;98.20
41481;DHT22;27217;51.220;5.308;2022-08-25T08:06:10;27.80;97.90
41481;DHT22;27217;51.220;5.308;2022-08-25T08:08:37;28.10;97.60
41481;DHT22;27217;51.220;5.308;2022-08-25T08:11:03;28.20;97.10
41481;DHT22;27217;51.220;5.308;2022-08-25T08:13:29;28.20;96.90
41481;DHT22;27217;51.220;5.308;2022-08-25T08:15:55;28.20;96.90
41481;DHT22;27217;51.220;5.308;2022-08-25T08:18:20;28.30;97.10
41481;DHT22;27217;51.220;5.308;2022-08-25T08:20:47;28.50;97.40
41481;DHT22;27217;51.220;5.308;2022-08-25T08:23:15;28.70;96.80
41481;DHT22;27217;51.220;5.308;2022-08-25T08:25:41;28.50;96.80
41481;DHT22;27217;51.220;5.308;2022-08-25T08:28:06;28.50;96.70
41481;DHT22;27217;51.220;5.308;2022-08-25T08:30:32;28.60;96.40
41481;DHT22;27217;51.220;5.308;2022-08-25T08:32:58;28.60;96.50
41481;DHT22;27217;51.220;5.308;2022-08-25T08:35:23;28.80;96.00
41481;DHT22;27217;51.220;5.308;2022-08-25T08:37:49;28.80;95.90
41481;DHT22;27217;51.220;5.308;2022-08-25T08:40:17;28.90;95.30
41481;DHT22;27217;51.220;5.308;2022-08-25T08:43:02;28.80;95.10
41481;DHT22;27217;51.220;5.308;2022-08-25T08:45:47;29.00;94.80
41481;DHT22;27217;51.220;5.308;2022-08-25T08:55:51;29.10;95.20
41481;DHT22;27217;51.220;5.308;2022-08-25T08:58:24;29.20;94.90
41481;DHT22;27217;51.220;5.308;2022-08-25T09:00:54;29.50;94.20
41481;DHT22;27217;51.220;5.308;2022-08-25T09:03:37;29.60;93.60
41481;DHT22;27217;51.220;5.308;2022-08-25T09:06:16;29.70;93.70
41481;DHT22;27217;51.220;5.308;2022-08-25T09:08:42;29.70;93.20
41481;DHT22;27217;51.220;5.308;2022-08-25T09:11:45;29.90;93.10
41481;DHT22;27217;51.220;5.308;2022-08-25T09:17:19;30.40;92.60
41481;DHT22;27217;51.220;5.308;2022-08-25T09:20:05;30.20;92.40
41481;DHT22;27217;51.220;5.308;2022-08-25T09:28:46;29.90;92.90
41481;DHT22;27217;51.220;5.308;2022-08-25T09:31:26;29.90;92.80
41481;DHT22;27217;51.220;5.308;2022-08-25T09:33:59;29.90;92.50
41481;DHT22;27217;51.220;5.308;2022-08-25T09:36:25;30.10;92.90
41481;DHT22;27217;51.220;5.308;2022-08-25T09:38:51;30.10;93.10
41481;DHT22;27217;51.220;5.308;2022-08-25T09:41:50;30.00;93.10
41481;DHT22;27217;51.220;5.308;2022-08-25T09:44:40;29.90;93.20
41481;DHT22;27217;51.220;5.308;2022-08-25T09:49:55;30.60;92.50
41481;DHT22;27217;51.220;5.308;2022-08-25T09:54:54;31.00;91.40
41481;DHT22;27217;51.220;5.308;2022-08-25T09:57:50;30.90;90.90
41481;DHT22;27217;51.220;5.308;2022-08-25T10:00:20;30.90;90.60
41481;DHT22;27217;51.220;5.308;2022-08-25T10:03:20;30.80;90.50
41481;DHT22;27217;51.220;5.308;2022-08-25T10:11:04;30.80;89.90
41481;DHT22;27217;51.220;5.308;2022-08-25T10:13:38;31.00;88.20
41481;DHT22;27217;51.220;5.308;2022-08-25T10:16:25;31.30;86.10
41481;DHT22;27217;51.220;5.308;2022-08-25T10:19:04;31.70;83.60
41481;DHT22;27217;51.220;5.308;2022-08-25T10:21:31;31.90;80.80
41481;DHT22;27217;51.220;5.308;2022-08-25T10:23:58;31.80;78.80
41481;DHT22;27217;51.220;5.308;2022-08-25T10:26:54;31.80;76.70
41481;DHT22;27217;51.220;5.308;2022-08-25T10:50:13;32.40;67.20
41481;DHT22;27217;51.220;5.308;2022-08-25T10:55:42;32.70;67.50
41481;DHT22;27217;51.220;5.308;2022-08-25T11:04:58;33.30;64.90
41481;DHT22;27217;51.220;5.308;2022-08-25T11:07:04;34.20;63.70
41481;DHT22;27217;51.220;5.308;2022-08-25T11:09:42;36.00;61.60
41481;DHT22;27217;51.220;5.308;2022-08-25T11:12:10;37.50;59.00
41481;DHT22;27217;51.220;5.308;2022-08-25T11:15:06;37.90;56.30
41481;DHT22;27217;51.220;5.308;2022-08-25T11:17:51;38.60;55.80
41481;DHT22;27217;51.220;5.308;2022-08-25T11:20:26;39.20;54.80
41481;DHT22;27217;51.220;5.308;2022-08-25T11:23:38;40.30;53.10
41481;DHT22;27217;51.220;5.308;2022-08-25T11:26:08;41.90;51.40
41481;DHT22;27217;51.220;5.308;2022-08-25T11:31:13;42.40;50.10
41481;DHT22;27217;51.220;5.308;2022-08-25T11:33:39;42.40;48.50
41481;DHT22;27217;51.220;5.308;2022-08-25T11:39:11;43.50;48.20
41481;DHT22;27217;51.220;5.308;2022-08-25T11:42:17;43.60;47.50
41481;DHT22;27217;51.220;5.308;2022-08-25T11:45:01;43.50;46.70
41481;DHT22;27217;51.220;5.308;2022-08-25T11:50:52;44.10;46.40
41481;DHT22;27217;51.220;5.308;2022-08-25T11:53:25;43.80;46.00
41481;DHT22;27217;51.220;5.308;2022-08-25T11:55:58;43.40;46.30
41481;DHT22;27217;51.220;5.308;2022-08-25T12:00:53;43.10;47.20
41481;DHT22;27217;51.220;5.308;2022-08-25T12:06:24;43.40;46.00
41481;DHT22;27217;51.220;5.308;2022-08-25T12:27:40;44.60;45.80
41481;DHT22;27217;51.220;5.308;2022-08-25T12:30:27;44.00;45.30
41481;DHT22;27217;51.220;5.308;2022-08-25T12:38:14;44.50;44.90
41481;DHT22;27217;51.220;5.308;2022-08-25T12:45:51;44.40;44.60
41481;DHT22;27217;51.220;5.308;2022-08-25T12:51:16;45.30;43.60
41481;DHT22;27217;51.220;5.308;2022-08-25T12:59:42;46.20;42.60
41481;DHT22;27217;51.220;5.308;2022-08-25T13:08:26;47.10;42.10
41481;DHT22;27217;51.220;5.308;2022-08-25T13:11:16;45.40;41.80
41481;DHT22;27217;51.220;5.308;2022-08-25T13:13:55;45.10;42.40
41481;DHT22;27217;51.220;5.308;2022-08-25T13:16:26;43.60;43.10
41481;DHT22;27217;51.220;5.308;2022-08-25T13:18:53;44.60;43.40
41481;DHT22;27217;51.220;5.308;2022-08-25T13:21:38;45.20;43.10
41481;DHT22;27217;51.220;5.308;2022-08-25T13:24:21;45.40;43.00
41481;DHT22;27217;51.220;5.308;2022-08-25T13:27:04;45.60;42.00
41481;DHT22;27217;51.220;5.308;2022-08-25T13:29:33;45.30;41.80
41481;DHT22;27217;51.220;5.308;2022-08-25T13:32:01;47.70;41.50
41481;DHT22;27217;51.220;5.308;2022-08-25T13:34:33;47.20;41.50
41481;DHT22;27217;51.220;5.308;2022-08-25T13:37:14;46.20;41.50
41481;DHT22;27217;51.220;5.308;2022-08-25T13:40:10;46.00;41.90
41481;DHT22;27217;51.220;5.308;2022-08-25T13:42:40;44.70;42.60
41481;DHT22;27217;51.220;5.308;2022-08-25T13:45:07;44.30;42.70
41481;DHT22;27217;51.220;5.308;2022-08-25T13:47:40;44.00;43.00
41481;DHT22;27217;51.220;5.308;2022-08-25T13:53:11;42.50;44.20
41481;DHT22;27217;51.220;5.308;2022-08-25T13:55:49;42.10;44.40
41481;DHT22;27217;51.220;5.308;2022-08-25T13:58:32;41.30;45.40
41481;DHT22;27217;51.220;5.308;2022-08-25T14:03:41;40.60;45.60
41481;DHT22;27217;51.220;5.308;2022-08-25T14:08:44;44.40;43.30
41481;DHT22;27217;51.220;5.308;2022-08-25T14:11:30;45.90;42.20
41481;DHT22;27217;51.220;5.308;2022-08-25T14:14:07;45.70;41.60
41481;DHT22;27217;51.220;5.308;2022-08-25T14:16:50;45.30;41.60
41481;DHT22;27217;51.220;5.308;2022-08-25T14:19:18;45.50;41.70
41481;DHT22;27217;51.220;5.308;2022-08-25T14:21:45;44.60;42.40
41481;DHT22;27217;51.220;5.308;2022-08-25T14:24:20;43.60;43.20
41481;DHT22;27217;51.220;5.308;2022-08-25T14:26:49;42.30;43.90
41481;DHT22;27217;51.220;5.308;2022-08-25T14:29:16;41.60;44.40
41481;DHT22;27217;51.220;5.308;2022-08-25T14:31:44;41.90;44.30
41481;DHT22;27217;51.220;5.308;2022-08-25T14:34:17;43.10;44.00
41481;DHT22;27217;51.220;5.308;2022-08-25T14:36:44;44.00;43.30
41481;DHT22;27217;51.220;5.308;2022-08-25T14:39:11;45.50;42.70
41481;DHT22;27217;51.220;5.308;2022-08-25T14:41:39;46.20;42.00
41481;DHT22;27217;51.220;5.308;2022-08-25T14:44:09;47.00;41.60
41481;DHT22;27217;51.220;5.308;2022-08-25T14:46:49;46.40;42.10
41481;DHT22;27217;51.220;5.308;2022-08-25T14:49:18;45.60;42.30
41481;DHT22;27217;51.220;5.308;2022-08-25T14:51:45;45.60;42.60
41481;DHT22;27217;51.220;5.308;2022-08-25T14:54:13;46.90;42.70
41481;DHT22;27217;51.220;5.308;2022-08-25T14:56:40;47.70;41.60
41481;DHT22;27217;51.220;5.308;2022-08-25T14:59:06;47.90;41.30
41481;DHT22;27217;51.220;5.308;2022-08-25T15:01:32;48.20;41.30
41481;DHT22;27217;51.220;5.308;2022-08-25T15:04:10;46.80;41.00
41481;DHT22;27217;51.220;5.308;2022-08-25T15:06:37;46.90;41.70
41481;DHT22;27217;51.220;5.308;2022-08-25T15:09:07;47.50;41.50
41481;DHT22;27217;51.220;5.308;2022-08-25T15:11:40;46.80;41.50
41481;DHT22;27217;51.220;5.308;2022-08-25T15:14:11;45.80;41.60
41481;DHT22;27217;51.220;5.308;2022-08-25T15:16:46;44.70;42.40
41481;DHT22;27217;51.220;5.308;2022-08-25T15:19:16;44.70;42.40
41481;DHT22;27217;51.220;5.308;2022-08-25T15:21:44;44.80;42.30
41481;DHT22;27217;51.220;5.308;2022-08-25T15:24:11;45.70;42.00
41481;DHT22;27217;51.220;5.308;2022-08-25T15:26:58;45.90;41.70
41481;DHT22;27217;51.220;5.308;2022-08-25T15:29:28;46.30;41.90
41481;DHT22;27217;51.220;5.308;2022-08-25T15:31:54;46.90;41.70
41481;DHT22;27217;51.220;5.308;2022-08-25T15:34:21;48.10;41.20
41481;DHT22;27217;51.220;5.308;2022-08-25T15:36:46;48.60;41.00
41481;DHT22;27217;51.220;5.308;2022-08-25T15:39:13;47.10;40.80
41481;DHT22;27217;51.220;5.308;2022-08-25T15:41:39;47.10;41.10
41481;DHT22;27217;51.220;5.308;2022-08-25T15:44:06;47.20;41.00
41481;DHT22;27217;51.220;5.308;2022-08-25T15:46:32;46.10;41.00
41481;DHT22;27217;51.220;5.308;2022-08-25T15:49:00;45.00;41.50
41481;DHT22;27217;51.220;5.308;2022-08-25T15:51:27;45.20;42.20
41481;DHT22;27217;51.220;5.308;2022-08-25T15:53:53;45.00;42.00
41481;DHT22;27217;51.220;5.308;2022-08-25T15:56:19;44.70;42.60
41481;DHT22;27217;51.220;5.308;2022-08-25T15:58:45;45.00;42.60
41481;DHT22;27217;51.220;5.308;2022-08-25T16:01:13;44.80;42.60
41481;DHT22;27217;51.220;5.308;2022-08-25T16:03:40;44.50;42.50
41481;DHT22;27217;51.220;5.308;2022-08-25T16:06:06;45.00;42.60
41481;DHT22;27217;51.220;5.308;2022-08-25T16:08:32;45.60;42.40
41481;DHT22;27217;51.220;5.308;2022-08-25T16:11:01;46.10;42.20
41481;DHT22;27217;51.220;5.308;2022-08-25T16:13:27;46.50;41.70
41481;DHT22;27217;51.220;5.308;2022-08-25T16:15:53;47.40;41.60
41481;DHT22;27217;51.220;5.308;2022-08-25T16:18:20;47.60;41.20
41481;DHT22;27217;51.220;5.308;2022-08-25T16:20:47;46.60;41.60
41481;DHT22;27217;51.220;5.308;2022-08-25T16:23:15;45.50;41.90
41481;DHT22;27217;51.220;5.308;2022-08-25T16:25:42;44.80;42.10
41481;DHT22;27217;51.220;5.308;2022-08-25T16:28:10;44.60;42.50
41481;DHT22;27217;51.220;5.308;2022-08-25T16:30:37;44.30;42.70
41481;DHT22;27217;51.220;5.308;2022-08-25T16:33:06;44.00;43.00
41481;DHT22;27217;51.220;5.308;2022-08-25T16:35:33;43.60;42.90
41481;DHT22;27217;51.220;5.308;2022-08-25T16:37:59;43.30;43.10
41481;DHT22;27217;51.220;5.308;2022-08-25T16:40:25;43.00;43.40
41481;DHT22;27217;51.220;5.308;2022-08-25T16:42:52;42.70;43.60
41481;DHT22;27217;51.220;5.308;2022-08-25T16:45:20;42.50;43.70
41481;DHT22;27217;51.220;5.308;2022-08-25T16:47:46;42.30;43.90
41481;DHT22;27217;51.220;5.308;2022-08-25T16:50:13;42.20;44.20
41481;DHT22;27217;51.220;5.308;2022-08-25T16:52:40;42.40;44.30
41481;DHT22;27217;51.220;5.308;2022-08-25T16:55:25;42.40;44.20
41481;DHT22;27217;51.220;5.308;2022-08-25T16:57:52;42.50;44.00
41481;DHT22;27217;51.220;5.308;2022-08-25T17:00:22;42.60;43.90
41481;DHT22;27217;51.220;5.308;2022-08-25T17:02:49;42.10;44.10
41481;DHT22;27217;51.220;5.308;2022-08-25T17:05:17;41.70;44.30
41481;DHT22;27217;51.220;5.308;2022-08-25T17:07:43;41.60;44.50
41481;DHT22;27217;51.220;5.308;2022-08-25T17:10:28;41.50;44.60
41481;DHT22;27217;51.220;5.308;2022-08-25T17:12:54;41.40;45.00
41481;DHT22;27217;51.220;5.308;2022-08-25T17:15:21;41.10;45.00
41481;DHT22;27217;51.220;5.308;2022-08-25T17:17:48;40.70;45.20
41481;DHT22;27217;51.220;5.308;2022-08-25T17:20:14;40.40;45.40
41481;DHT22;27217;51.220;5.308;2022-08-25T17:22:41;40.60;45.60
41481;DHT22;27217;51.220;5.308;2022-08-25T17:25:08;40.60;46.00
41481;DHT22;27217;51.220;5.308;2022-08-25T17:27:34;40.20;46.30
41481;DHT22;27217;51.220;5.308;2022-08-25T17:30:00;39.90;46.60
41481;DHT22;27217;51.220;5.308;2022-08-25T17:32:26;39.50;46.90
41481;DHT22;27217;51.220;5.308;2022-08-25T17:34:55;39.10;47.40
41481;DHT22;27217;51.220;5.308;2022-08-25T17:37:21;38.80;47.60
41481;DHT22;27217;51.220;5.308;2022-08-25T17:39:47;38.40;48.30
41481;DHT22;27217;51.220;5.308;2022-08-25T17:42:13;38.10;48.70
41481;DHT22;27217;51.220;5.308;2022-08-25T17:44:39;37.70;49.10
41481;DHT22;27217;51.220;5.308;2022-08-25T17:47:06;37.40;49.40
41481;DHT22;27217;51.220;5.308;2022-08-25T17:49:32;36.70;50.00
41481;DHT22;27217;51.220;5.308;2022-08-25T17:51:58;36.30;50.50
41481;DHT22;27217;51.220;5.308;2022-08-25T17:54:24;36.20;50.80
41481;DHT22;27217;51.220;5.308;2022-08-25T17:56:50;35.80;51.10